sensor_id;sensor_type;location;lat;lon;timestamp;P1;durP1;ratioP1;P2;durP2;ratioP2
45694;SDS011;31408;45.468;9.124;2023-04-29T00:00:23;8.90;;;4.95;;
45694;SDS011;31408;45.468;9.124;2023-04-29T00:02:48;9.60;;;4.97;;
45694;SDS011;31408;45.468;9.124;2023-04-29T00:05:14;10.65;;;6.00;;
45694;SDS011;31408;45.468;9.124;2023-04-29T00:07:39;19.52;;;5.18;;
45694;SDS011;31408;45.468;9.124;2023-04-29T00:10:05;15.13;;;5.07;;
45694;SDS011;31408;45.468;9.124;2023-04-29T00:12:37;12.50;;;4.57;;
45694;SDS011;31408;45.468;9.124;2023-04-29T00:15:03;14.02;;;5.07;;
45694;SDS011;31408;45.468;9.124;2023-04-29T00:17:30;10.02;;;4.55;;
45694;SDS011;31408;45.468;9.124;2023-04-29T00:19:55;11.98;;;5.47;;
45694;SDS011;31408;45.468;9.124;2023-04-29T00:22:21;6.93;;;4.10;;
45694;SDS011;31408;45.468;9.124;2023-04-29T00:24:46;8.27;;;4.63;;
45694;SDS011;31408;45.468;9.124;2023-04-29T00:27:12;11.18;;;4.53;;
45694;SDS011;31408;45.468;9.124;2023-04-29T00:29:40;8.13;;;5.05;;
45694;SDS011;31408;45.468;9.124;2023-04-29T00:32:06;11.63;;;5.05;;
45694;SDS011;31408;45.468;9.124;2023-04-29T00:34:31;10.25;;;4.55;;
45694;SDS011;31408;45.468;9.124;2023-04-29T00:36:57;10.77;;;5.07;;
45694;SDS011;31408;45.468;9.124;2023-04-29T00:39:22;13.93;;;4.82;;
45694;SDS011;31408;45.468;9.124;2023-04-29T00:41:48;8.25;;;4.90;;
45694;SDS011;31408;45.468;9.124;2023-04-29T00:44:14;10.52;;;4.15;;
45694;SDS011;31408;45.468;9.124;2023-04-29T00:46:39;12.73;;;4.88;;
45694;SDS011;31408;45.468;9.124;2023-04-29T00:49:05;9.43;;;4.95;;
45694;SDS011;31408;45.468;9.124;2023-04-29T00:51:32;13.20;;;5.25;;
45694;SDS011;31408;45.468;9.124;2023-04-29T00:53:58;9.18;;;4.35;;
45694;SDS011;31408;45.468;9.124;2023-04-29T00:56:24;9.02;;;4.72;;
45694;SDS011;31408;45.468;9.124;2023-04-29T00:58:49;7.28;;;4.43;;
45694;SDS011;31408;45.468;9.124;2023-04-29T01:01:17;10.52;;;5.10;;
45694;SDS011;31408;45.468;9.124;2023-04-29T01:03:43;12.43;;;4.93;;
45694;SDS011;31408;45.468;9.124;2023-04-29T01:09:14;7.95;;;5.25;;
45694;SDS011;31408;45.468;9.124;2023-04-29T01:14:31;13.77;;;5.40;;
45694;SDS011;31408;45.468;9.124;2023-04-29T01:17:04;13.60;;;5.93;;
45694;SDS011;31408;45.468;9.124;2023-04-29T01:19:47;11.18;;;4.22;;
45694;SDS011;31408;45.468;9.124;2023-04-29T01:22:15;13.38;;;5.45;;
45694;SDS011;31408;45.468;9.124;2023-04-29T01:24:42;11.13;;;5.13;;
45694;SDS011;31408;45.468;9.124;2023-04-29T01:32:52;13.30;;;5.72;;
45694;SDS011;31408;45.468;9.124;2023-04-29T01:43:38;9.80;;;5.00;;
45694;SDS011;31408;45.468;9.124;2023-04-29T01:46:14;14.80;;;6.43;;
45694;SDS011;31408;45.468;9.124;2023-04-29T01:48:40;10.93;;;5.95;;
45694;SDS011;31408;45.468;9.124;2023-04-29T01:51:06;19.33;;;5.72;;
45694;SDS011;31408;45.468;9.124;2023-04-29T01:53:32;12.18;;;6.07;;
45694;SDS011;31408;45.468;9.124;2023-04-29T01:55:57;9.88;;;5.10;;
45694;SDS011;31408;45.468;9.124;2023-04-29T01:58:34;12.60;;;5.82;;
45694;SDS011;31408;45.468;9.124;2023-04-29T02:01:13;13.98;;;5.85;;
45694;SDS011;31408;45.468;9.124;2023-04-29T02:03:39;12.95;;;5.43;;
45694;SDS011;31408;45.468;9.124;2023-04-29T02:06:07;9.65;;;5.70;;
45694;SDS011;31408;45.468;9.124;2023-04-29T02:08:34;11.95;;;5.57;;
45694;SDS011;31408;45.468;9.124;2023-04-29T02:11:00;10.98;;;5.60;;
45694;SDS011;31408;45.468;9.124;2023-04-29T02:13:32;16.63;;;5.95;;
45694;SDS011;31408;45.468;9.124;2023-04-29T02:16:05;11.98;;;4.90;;
45694;SDS011;31408;45.468;9.124;2023-04-29T02:18:32;9.50;;;5.88;;
45694;SDS011;31408;45.468;9.124;2023-04-29T02:21:00;12.40;;;5.88;;
45694;SDS011;31408;45.468;9.124;2023-04-29T02:23:26;9.35;;;5.70;;
45694;SDS011;31408;45.468;9.124;2023-04-29T02:25:52;9.90;;;5.18;;
45694;SDS011;31408;45.468;9.124;2023-04-29T02:28:17;16.15;;;6.55;;
45694;SDS011;31408;45.468;9.124;2023-04-29T02:30:43;10.52;;;6.32;;
45694;SDS011;31408;45.468;9.124;2023-04-29T02:33:08;24.45;;;6.90;;
45694;SDS011;31408;45.468;9.124;2023-04-29T02:35:34;10.77;;;5.47;;
45694;SDS011;31408;45.468;9.124;2023-04-29T02:38:00;11.20;;;4.93;;
45694;SDS011;31408;45.468;9.124;2023-04-29T02:40:25;12.75;;;5.95;;
45694;SDS011;31408;45.468;9.124;2023-04-29T02:42:51;10.65;;;5.57;;
45694;SDS011;31408;45.468;9.124;2023-04-29T02:45:16;9.23;;;5.07;;
45694;SDS011;31408;45.468;9.124;2023-04-29T02:47:43;17.95;;;7.13;;
45694;SDS011;31408;45.468;9.124;2023-04-29T02:50:08;17.35;;;5.78;;
45694;SDS011;31408;45.468;9.124;2023-04-29T02:52:34;12.95;;;6.15;;
45694;SDS011;31408;45.468;9.124;2023-04-29T02:55:00;9.60;;;5.68;;
45694;SDS011;31408;45.468;9.124;2023-04-29T02:57:25;12.20;;;5.70;;
45694;SDS011;31408;45.468;9.124;2023-04-29T02:59:51;14.90;;;6.30;;
45694;SDS011;31408;45.468;9.124;2023-04-29T03:02:16;9.95;;;5.60;;
45694;SDS011;31408;45.468;9.124;2023-04-29T03:04:44;13.05;;;6.72;;
45694;SDS011;31408;45.468;9.124;2023-04-29T03:07:10;10.75;;;5.65;;
45694;SDS011;31408;45.468;9.124;2023-04-29T03:09:36;8.63;;;5.43;;
45694;SDS011;31408;45.468;9.124;2023-04-29T03:12:02;12.40;;;6.28;;
45694;SDS011;31408;45.468;9.124;2023-04-29T03:14:28;13.18;;;7.20;;
45694;SDS011;31408;45.468;9.124;2023-04-29T03:16:54;18.58;;;6.63;;
45694;SDS011;31408;45.468;9.124;2023-04-29T03:19:20;17.48;;;5.68;;
45694;SDS011;31408;45.468;9.124;2023-04-29T03:21:48;13.70;;;5.20;;
45694;SDS011;31408;45.468;9.124;2023-04-29T03:24:14;10.90;;;5.93;;
45694;SDS011;31408;45.468;9.124;2023-04-29T03:26:40;12.13;;;5.45;;
45694;SDS011;31408;45.468;9.124;2023-04-29T03:29:07;11.55;;;6.55;;
45694;SDS011;31408;45.468;9.124;2023-04-29T03:31:33;12.88;;;6.05;;
45694;SDS011;31408;45.468;9.124;2023-04-29T03:33:58;11.43;;;5.32;;
45694;SDS011;31408;45.468;9.124;2023-04-29T03:36:24;10.68;;;5.70;;
45694;SDS011;31408;45.468;9.124;2023-04-29T03:39:10;9.05;;;5.63;;
45694;SDS011;31408;45.468;9.124;2023-04-29T03:41:36;11.15;;;6.57;;
45694;SDS011;31408;45.468;9.124;2023-04-29T03:44:02;9.23;;;5.85;;
45694;SDS011;31408;45.468;9.124;2023-04-29T03:46:28;13.65;;;6.97;;
45694;SDS011;31408;45.468;9.124;2023-04-29T03:48:54;12.65;;;5.75;;
45694;SDS011;31408;45.468;9.124;2023-04-29T03:51:21;12.43;;;6.50;;
45694;SDS011;31408;45.468;9.124;2023-04-29T03:53:54;10.90;;;5.63;;
45694;SDS011;31408;45.468;9.124;2023-04-29T03:56:22;9.80;;;6.43;;
45694;SDS011;31408;45.468;9.124;2023-04-29T03:58:50;12.60;;;6.15;;
45694;SDS011;31408;45.468;9.124;2023-04-29T04:01:18;11.32;;;5.45;;
45694;SDS011;31408;45.468;9.124;2023-04-29T04:03:44;9.75;;;5.50;;
45694;SDS011;31408;45.468;9.124;2023-04-29T04:06:10;11.70;;;5.22;;
45694;SDS011;31408;45.468;9.124;2023-04-29T04:08:36;11.77;;;5.95;;
45694;SDS011;31408;45.468;9.124;2023-04-29T04:11:14;13.20;;;5.93;;
45694;SDS011;31408;45.468;9.124;2023-04-29T04:13:55;12.50;;;5.63;;
45694;SDS011;31408;45.468;9.124;2023-04-29T04:16:22;12.57;;;6.22;;
45694;SDS011;31408;45.468;9.124;2023-04-29T04:18:48;8.35;;;4.72;;
45694;SDS011;31408;45.468;9.124;2023-04-29T04:21:13;11.00;;;5.50;;
45694;SDS011;31408;45.468;9.124;2023-04-29T04:23:42;8.25;;;5.03;;
45694;SDS011;31408;45.468;9.124;2023-04-29T04:26:11;8.57;;;4.90;;
45694;SDS011;31408;45.468;9.124;2023-04-29T04:28:59;11.27;;;4.78;;
45694;SDS011;31408;45.468;9.124;2023-04-29T04:31:33;13.00;;;5.93;;
45694;SDS011;31408;45.468;9.124;2023-04-29T04:33:58;13.30;;;5.65;;
45694;SDS011;31408;45.468;9.124;2023-04-29T04:36:24;13.02;;;5.78;;
45694;SDS011;31408;45.468;9.124;2023-04-29T04:38:50;8.25;;;5.07;;
45694;SDS011;31408;45.468;9.124;2023-04-29T04:41:16;14.00;;;5.25;;
45694;SDS011;31408;45.468;9.124;2023-04-29T04:43:45;16.58;;;6.25;;
45694;SDS011;31408;45.468;9.124;2023-04-29T04:46:20;12.10;;;5.88;;
45694;SDS011;31408;45.468;9.124;2023-04-29T04:48:59;8.70;;;5.45;;
45694;SDS011;31408;45.468;9.124;2023-04-29T04:51:26;16.98;;;6.72;;
45694;SDS011;31408;45.468;9.124;2023-04-29T04:53:53;12.18;;;6.40;;
45694;SDS011;31408;45.468;9.124;2023-04-29T04:56:21;11.23;;;5.07;;
45694;SDS011;31408;45.468;9.124;2023-04-29T04:58:46;12.52;;;6.20;;
45694;SDS011;31408;45.468;9.124;2023-04-29T05:01:13;10.60;;;6.20;;
45694;SDS011;31408;45.468;9.124;2023-04-29T05:03:39;10.07;;;5.22;;
45694;SDS011;31408;45.468;9.124;2023-04-29T05:06:04;14.52;;;6.53;;
45694;SDS011;31408;45.468;9.124;2023-04-29T05:08:31;13.45;;;6.38;;
45694;SDS011;31408;45.468;9.124;2023-04-29T05:11:01;11.68;;;6.53;;
45694;SDS011;31408;45.468;9.124;2023-04-29T05:13:27;16.38;;;6.22;;
45694;SDS011;31408;45.468;9.124;2023-04-29T05:15:53;12.13;;;6.63;;
45694;SDS011;31408;45.468;9.124;2023-04-29T05:18:23;12.75;;;6.18;;
45694;SDS011;31408;45.468;9.124;2023-04-29T05:20:50;15.90;;;8.30;;
45694;SDS011;31408;45.468;9.124;2023-04-29T05:23:16;20.10;;;7.57;;
45694;SDS011;31408;45.468;9.124;2023-04-29T05:25:43;10.77;;;6.22;;
45694;SDS011;31408;45.468;9.124;2023-04-29T05:28:09;13.85;;;7.20;;
45694;SDS011;31408;45.468;9.124;2023-04-29T05:30:38;11.00;;;5.68;;
45694;SDS011;31408;45.468;9.124;2023-04-29T05:33:04;9.93;;;6.25;;
45694;SDS011;31408;45.468;9.124;2023-04-29T05:35:30;12.63;;;6.97;;
45694;SDS011;31408;45.468;9.124;2023-04-29T05:37:57;14.23;;;6.82;;
45694;SDS011;31408;45.468;9.124;2023-04-29T05:40:28;9.05;;;5.78;;
45694;SDS011;31408;45.468;9.124;2023-04-29T05:43:06;15.38;;;7.10;;
45694;SDS011;31408;45.468;9.124;2023-04-29T05:45:31;8.95;;;5.97;;
45694;SDS011;31408;45.468;9.124;2023-04-29T05:47:57;13.15;;;7.40;;
45694;SDS011;31408;45.468;9.124;2023-04-29T05:50:22;12.23;;;6.18;;
45694;SDS011;31408;45.468;9.124;2023-04-29T05:52:48;13.90;;;6.90;;
45694;SDS011;31408;45.468;9.124;2023-04-29T05:55:14;15.75;;;7.28;;
45694;SDS011;31408;45.468;9.124;2023-04-29T05:57:39;12.45;;;6.50;;
45694;SDS011;31408;45.468;9.124;2023-04-29T06:00:06;12.02;;;6.70;;
45694;SDS011;31408;45.468;9.124;2023-04-29T06:02:38;15.98;;;7.22;;
45694;SDS011;31408;45.468;9.124;2023-04-29T06:05:08;11.63;;;6.47;;
45694;SDS011;31408;45.468;9.124;2023-04-29T06:07:54;14.45;;;7.35;;
45694;SDS011;31408;45.468;9.124;2023-04-29T06:10:38;17.30;;;7.20;;
45694;SDS011;31408;45.468;9.124;2023-04-29T06:13:04;13.10;;;7.30;;
45694;SDS011;31408;45.468;9.124;2023-04-29T06:15:29;19.63;;;8.27;;
45694;SDS011;31408;45.468;9.124;2023-04-29T06:17:55;16.85;;;8.65;;
45694;SDS011;31408;45.468;9.124;2023-04-29T06:20:20;16.02;;;8.18;;
45694;SDS011;31408;45.468;9.124;2023-04-29T06:22:46;17.23;;;9.02;;
45694;SDS011;31408;45.468;9.124;2023-04-29T06:25:11;17.23;;;8.10;;
45694;SDS011;31408;45.468;9.124;2023-04-29T06:27:45;20.15;;;9.38;;
45694;SDS011;31408;45.468;9.124;2023-04-29T06:30:11;18.00;;;7.35;;
45694;SDS011;31408;45.468;9.124;2023-04-29T06:32:40;18.73;;;8.90;;
45694;SDS011;31408;45.468;9.124;2023-04-29T06:35:06;15.52;;;8.10;;
45694;SDS011;31408;45.468;9.124;2023-04-29T06:37:49;17.80;;;8.68;;
45694;SDS011;31408;45.468;9.124;2023-04-29T06:40:47;18.13;;;8.90;;
45694;SDS011;31408;45.468;9.124;2023-04-29T06:45:54;14.32;;;7.25;;
45694;SDS011;31408;45.468;9.124;2023-04-29T06:48:40;18.27;;;7.60;;
45694;SDS011;31408;45.468;9.124;2023-04-29T06:51:10;19.10;;;8.68;;
45694;SDS011;31408;45.468;9.124;2023-04-29T06:53:37;17.67;;;8.95;;
45694;SDS011;31408;45.468;9.124;2023-04-29T06:56:03;17.67;;;8.60;;
45694;SDS011;31408;45.468;9.124;2023-04-29T06:58:30;23.02;;;9.80;;
45694;SDS011;31408;45.468;9.124;2023-04-29T07:00:55;18.27;;;8.05;;
45694;SDS011;31408;45.468;9.124;2023-04-29T07:03:21;21.60;;;9.95;;
45694;SDS011;31408;45.468;9.124;2023-04-29T07:05:46;26.02;;;8.85;;
45694;SDS011;31408;45.468;9.124;2023-04-29T07:08:12;22.20;;;8.32;;
45694;SDS011;31408;45.468;9.124;2023-04-29T07:10:38;17.50;;;9.20;;
45694;SDS011;31408;45.468;9.124;2023-04-29T07:13:03;21.67;;;10.07;;
45694;SDS011;31408;45.468;9.124;2023-04-29T07:15:33;21.02;;;9.05;;
45694;SDS011;31408;45.468;9.124;2023-04-29T07:17:59;39.20;;;11.88;;
45694;SDS011;31408;45.468;9.124;2023-04-29T07:20:25;19.45;;;8.85;;
45694;SDS011;31408;45.468;9.124;2023-04-29T07:22:51;16.88;;;9.63;;
45694;SDS011;31408;45.468;9.124;2023-04-29T07:25:17;20.20;;;9.52;;
45694;SDS011;31408;45.468;9.124;2023-04-29T07:27:43;20.13;;;9.98;;
45694;SDS011;31408;45.468;9.124;2023-04-29T07:30:09;17.95;;;9.43;;
45694;SDS011;31408;45.468;9.124;2023-04-29T07:32:35;17.27;;;8.55;;
45694;SDS011;31408;45.468;9.124;2023-04-29T07:35:02;17.38;;;8.82;;
45694;SDS011;31408;45.468;9.124;2023-04-29T07:37:29;15.23;;;9.02;;
45694;SDS011;31408;45.468;9.124;2023-04-29T07:39:54;14.52;;;7.88;;
45694;SDS011;31408;45.468;9.124;2023-04-29T07:42:21;16.77;;;8.45;;
45694;SDS011;31408;45.468;9.124;2023-04-29T07:44:46;14.90;;;7.80;;
45694;SDS011;31408;45.468;9.124;2023-04-29T07:47:12;16.58;;;8.63;;
45694;SDS011;31408;45.468;9.124;2023-04-29T07:49:37;13.63;;;8.10;;
45694;SDS011;31408;45.468;9.124;2023-04-29T07:52:06;17.92;;;8.95;;
45694;SDS011;31408;45.468;9.124;2023-04-29T07:54:34;13.65;;;7.97;;
45694;SDS011;31408;45.468;9.124;2023-04-29T07:57:03;17.70;;;8.32;;
45694;SDS011;31408;45.468;9.124;2023-04-29T07:59:32;17.65;;;8.30;;
45694;SDS011;31408;45.468;9.124;2023-04-29T08:01:57;19.70;;;9.23;;
45694;SDS011;31408;45.468;9.124;2023-04-29T08:04:23;16.30;;;8.95;;
45694;SDS011;31408;45.468;9.124;2023-04-29T08:07:08;18.85;;;8.25;;
45694;SDS011;31408;45.468;9.124;2023-04-29T08:09:34;16.55;;;8.35;;
45694;SDS011;31408;45.468;9.124;2023-04-29T08:12:06;15.07;;;7.93;;
45694;SDS011;31408;45.468;9.124;2023-04-29T08:14:32;15.38;;;7.63;;
45694;SDS011;31408;45.468;9.124;2023-04-29T08:16:58;20.20;;;8.93;;
45694;SDS011;31408;45.468;9.124;2023-04-29T08:19:24;16.83;;;8.75;;
45694;SDS011;31408;45.468;9.124;2023-04-29T08:21:50;20.63;;;9.38;;
45694;SDS011;31408;45.468;9.124;2023-04-29T08:24:16;14.20;;;7.70;;
45694;SDS011;31408;45.468;9.124;2023-04-29T08:26:41;17.40;;;8.30;;
45694;SDS011;31408;45.468;9.124;2023-04-29T08:29:07;15.55;;;8.48;;
45694;SDS011;31408;45.468;9.124;2023-04-29T08:31:33;16.27;;;7.78;;
45694;SDS011;31408;45.468;9.124;2023-04-29T08:37:02;15.55;;;7.55;;
45694;SDS011;31408;45.468;9.124;2023-04-29T08:39:28;12.95;;;7.13;;
45694;SDS011;31408;45.468;9.124;2023-04-29T08:41:58;11.70;;;7.07;;
45694;SDS011;31408;45.468;9.124;2023-04-29T08:44:24;14.27;;;7.22;;
45694;SDS011;31408;45.468;9.124;2023-04-29T08:46:52;12.82;;;6.82;;
45694;SDS011;31408;45.468;9.124;2023-04-29T08:49:17;13.95;;;6.75;;
45694;SDS011;31408;45.468;9.124;2023-04-29T08:51:43;13.68;;;7.20;;
45694;SDS011;31408;45.468;9.124;2023-04-29T08:54:09;13.32;;;6.13;;
45694;SDS011;31408;45.468;9.124;2023-04-29T08:56:35;11.80;;;5.97;;
45694;SDS011;31408;45.468;9.124;2023-04-29T08:59:01;13.82;;;6.03;;
45694;SDS011;31408;45.468;9.124;2023-04-29T09:01:31;10.27;;;6.13;;
45694;SDS011;31408;45.468;9.124;2023-04-29T09:06:26;11.93;;;5.20;;
45694;SDS011;31408;45.468;9.124;2023-04-29T09:08:51;11.40;;;5.28;;
45694;SDS011;31408;45.468;9.124;2023-04-29T09:11:17;8.32;;;4.57;;
45694;SDS011;31408;45.468;9.124;2023-04-29T09:13:43;8.55;;;5.88;;
45694;SDS011;31408;45.468;9.124;2023-04-29T09:16:11;12.68;;;5.88;;
45694;SDS011;31408;45.468;9.124;2023-04-29T09:18:44;9.32;;;4.90;;
45694;SDS011;31408;45.468;9.124;2023-04-29T09:21:17;8.15;;;4.38;;
45694;SDS011;31408;45.468;9.124;2023-04-29T09:23:45;11.23;;;4.32;;
45694;SDS011;31408;45.468;9.124;2023-04-29T09:26:11;10.13;;;4.65;;
45694;SDS011;31408;45.468;9.124;2023-04-29T09:28:37;9.80;;;5.05;;
45694;SDS011;31408;45.468;9.124;2023-04-29T09:31:05;11.10;;;5.45;;
45694;SDS011;31408;45.468;9.124;2023-04-29T09:33:48;11.77;;;5.43;;
45694;SDS011;31408;45.468;9.124;2023-04-29T09:39:04;8.52;;;4.18;;
45694;SDS011;31408;45.468;9.124;2023-04-29T09:42:18;10.45;;;4.43;;
45694;SDS011;31408;45.468;9.124;2023-04-29T09:44:30;8.25;;;4.55;;
45694;SDS011;31408;45.468;9.124;2023-04-29T09:46:58;12.85;;;5.40;;
45694;SDS011;31408;45.468;9.124;2023-04-29T09:49:29;9.23;;;4.95;;
45694;SDS011;31408;45.468;9.124;2023-04-29T09:52:04;12.82;;;4.53;;
45694;SDS011;31408;45.468;9.124;2023-04-29T09:54:32;8.00;;;4.43;;
45694;SDS011;31408;45.468;9.124;2023-04-29T09:56:59;11.07;;;5.20;;
45694;SDS011;31408;45.468;9.124;2023-04-29T09:59:25;7.88;;;4.18;;
45694;SDS011;31408;45.468;9.124;2023-04-29T10:01:51;10.85;;;4.90;;
45694;SDS011;31408;45.468;9.124;2023-04-29T10:04:21;10.38;;;3.85;;
45694;SDS011;31408;45.468;9.124;2023-04-29T10:06:48;13.32;;;5.65;;
45694;SDS011;31408;45.468;9.124;2023-04-29T10:09:15;8.95;;;5.20;;
45694;SDS011;31408;45.468;9.124;2023-04-29T10:11:43;9.82;;;4.70;;
45694;SDS011;31408;45.468;9.124;2023-04-29T10:14:17;10.07;;;4.88;;
45694;SDS011;31408;45.468;9.124;2023-04-29T10:16:58;10.68;;;5.18;;
45694;SDS011;31408;45.468;9.124;2023-04-29T10:21:57;10.15;;;4.70;;
45694;SDS011;31408;45.468;9.124;2023-04-29T10:24:25;14.25;;;5.00;;
45694;SDS011;31408;45.468;9.124;2023-04-29T10:26:51;8.98;;;4.05;;
45694;SDS011;31408;45.468;9.124;2023-04-29T10:29:17;11.88;;;4.47;;
45694;SDS011;31408;45.468;9.124;2023-04-29T10:31:43;5.75;;;3.78;;
45694;SDS011;31408;45.468;9.124;2023-04-29T10:34:11;7.38;;;3.35;;
45694;SDS011;31408;45.468;9.124;2023-04-29T10:36:38;10.27;;;5.57;;
45694;SDS011;31408;45.468;9.124;2023-04-29T10:39:03;9.90;;;5.75;;
45694;SDS011;31408;45.468;9.124;2023-04-29T10:41:34;9.50;;;4.90;;
45694;SDS011;31408;45.468;9.124;2023-04-29T10:44:02;12.05;;;5.75;;
45694;SDS011;31408;45.468;9.124;2023-04-29T10:46:28;10.48;;;4.82;;
45694;SDS011;31408;45.468;9.124;2023-04-29T10:49:01;9.70;;;5.05;;
45694;SDS011;31408;45.468;9.124;2023-04-29T10:51:28;13.23;;;4.78;;
45694;SDS011;31408;45.468;9.124;2023-04-29T10:53:58;8.65;;;4.70;;
45694;SDS011;31408;45.468;9.124;2023-04-29T10:56:43;10.13;;;4.35;;
45694;SDS011;31408;45.468;9.124;2023-04-29T10:59:14;11.23;;;5.57;;
45694;SDS011;31408;45.468;9.124;2023-04-29T11:02:00;8.27;;;4.22;;
45694;SDS011;31408;45.468;9.124;2023-04-29T11:04:26;8.43;;;4.57;;
45694;SDS011;31408;45.468;9.124;2023-04-29T11:06:52;16.95;;;6.47;;
45694;SDS011;31408;45.468;9.124;2023-04-29T11:11:47;10.38;;;4.13;;
45694;SDS011;31408;45.468;9.124;2023-04-29T11:14:13;8.57;;;4.75;;
45694;SDS011;31408;45.468;9.124;2023-04-29T11:16:56;11.55;;;7.10;;
45694;SDS011;31408;45.468;9.124;2023-04-29T11:19:24;13.82;;;6.82;;
45694;SDS011;31408;45.468;9.124;2023-04-29T11:22:02;12.05;;;6.30;;
45694;SDS011;31408;45.468;9.124;2023-04-29T11:24:33;13.75;;;5.68;;
45694;SDS011;31408;45.468;9.124;2023-04-29T11:26:59;13.73;;;6.28;;
45694;SDS011;31408;45.468;9.124;2023-04-29T11:29:29;13.93;;;6.93;;
45694;SDS011;31408;45.468;9.124;2023-04-29T11:31:59;13.10;;;6.35;;
45694;SDS011;31408;45.468;9.124;2023-04-29T11:34:25;11.70;;;5.95;;
45694;SDS011;31408;45.468;9.124;2023-04-29T11:36:51;9.90;;;5.65;;
45694;SDS011;31408;45.468;9.124;2023-04-29T11:39:17;11.85;;;5.82;;
45694;SDS011;31408;45.468;9.124;2023-04-29T11:41:43;9.57;;;5.05;;
45694;SDS011;31408;45.468;9.124;2023-04-29T11:44:08;10.77;;;5.13;;
45694;SDS011;31408;45.468;9.124;2023-04-29T11:46:35;11.55;;;4.90;;
45694;SDS011;31408;45.468;9.124;2023-04-29T11:49:01;10.50;;;4.28;;
45694;SDS011;31408;45.468;9.124;2023-04-29T11:51:27;10.82;;;5.50;;
45694;SDS011;31408;45.468;9.124;2023-04-29T11:53:52;9.82;;;5.00;;
45694;SDS011;31408;45.468;9.124;2023-04-29T11:56:21;9.07;;;4.95;;
45694;SDS011;31408;45.468;9.124;2023-04-29T11:58:49;10.30;;;4.88;;
45694;SDS011;31408;45.468;9.124;2023-04-29T12:01:19;9.07;;;4.70;;
45694;SDS011;31408;45.468;9.124;2023-04-29T12:03:45;8.98;;;5.07;;
45694;SDS011;31408;45.468;9.124;2023-04-29T12:06:12;11.93;;;5.32;;
45694;SDS011;31408;45.468;9.124;2023-04-29T12:08:38;8.30;;;5.13;;
45694;SDS011;31408;45.468;9.124;2023-04-29T12:11:05;8.90;;;5.22;;
45694;SDS011;31408;45.468;9.124;2023-04-29T12:13:31;12.23;;;6.15;;
45694;SDS011;31408;45.468;9.124;2023-04-29T12:15:59;11.60;;;5.07;;
45694;SDS011;31408;45.468;9.124;2023-04-29T12:18:25;11.45;;;5.22;;
45694;SDS011;31408;45.468;9.124;2023-04-29T12:20:51;13.20;;;5.97;;
45694;SDS011;31408;45.468;9.124;2023-04-29T12:23:19;11.80;;;5.57;;
45694;SDS011;31408;45.468;9.124;2023-04-29T12:28:15;12.45;;;4.80;;
45694;SDS011;31408;45.468;9.124;2023-04-29T12:30:42;12.20;;;5.13;;
45694;SDS011;31408;45.468;9.124;2023-04-29T12:33:09;13.02;;;5.30;;
45694;SDS011;31408;45.468;9.124;2023-04-29T12:35:35;6.43;;;4.15;;
45694;SDS011;31408;45.468;9.124;2023-04-29T12:38:01;13.98;;;4.40;;
45694;SDS011;31408;45.468;9.124;2023-04-29T12:40:28;8.20;;;4.53;;
45694;SDS011;31408;45.468;9.124;2023-04-29T12:42:53;5.18;;;3.22;;
45694;SDS011;31408;45.468;9.124;2023-04-29T12:45:25;9.38;;;4.78;;
45694;SDS011;31408;45.468;9.124;2023-04-29T12:47:51;9.63;;;4.03;;
45694;SDS011;31408;45.468;9.124;2023-04-29T12:50:16;8.30;;;3.92;;
45694;SDS011;31408;45.468;9.124;2023-04-29T12:52:42;10.32;;;4.57;;
45694;SDS011;31408;45.468;9.124;2023-04-29T12:55:07;7.43;;;4.32;;
45694;SDS011;31408;45.468;9.124;2023-04-29T12:57:32;9.07;;;4.43;;
45694;SDS011;31408;45.468;9.124;2023-04-29T12:59:58;9.10;;;3.95;;
45694;SDS011;31408;45.468;9.124;2023-04-29T13:02:24;6.70;;;3.95;;
45694;SDS011;31408;45.468;9.124;2023-04-29T13:04:49;7.97;;;3.90;;
45694;SDS011;31408;45.468;9.124;2023-04-29T13:07:15;10.38;;;4.20;;
45694;SDS011;31408;45.468;9.124;2023-04-29T13:09:40;7.97;;;4.25;;
45694;SDS011;31408;45.468;9.124;2023-04-29T13:12:06;10.52;;;4.40;;
45694;SDS011;31408;45.468;9.124;2023-04-29T13:14:33;10.88;;;4.32;;
45694;SDS011;31408;45.468;9.124;2023-04-29T13:16:58;7.38;;;3.63;;
45694;SDS011;31408;45.468;9.124;2023-04-29T13:19:24;6.22;;;3.40;;
45694;SDS011;31408;45.468;9.124;2023-04-29T13:21:49;6.88;;;3.20;;
45694;SDS011;31408;45.468;9.124;2023-04-29T13:24:15;8.60;;;4.13;;
45694;SDS011;31408;45.468;9.124;2023-04-29T13:26:43;15.73;;;5.20;;
45694;SDS011;31408;45.468;9.124;2023-04-29T13:29:08;10.77;;;4.03;;
45694;SDS011;31408;45.468;9.124;2023-04-29T13:31:33;8.70;;;3.85;;
45694;SDS011;31408;45.468;9.124;2023-04-29T13:33:59;8.35;;;4.68;;
45694;SDS011;31408;45.468;9.124;2023-04-29T13:36:24;6.57;;;3.83;;
45694;SDS011;31408;45.468;9.124;2023-04-29T13:38:52;8.38;;;3.30;;
45694;SDS011;31408;45.468;9.124;2023-04-29T13:41:17;12.25;;;4.43;;
45694;SDS011;31408;45.468;9.124;2023-04-29T13:43:43;11.75;;;4.28;;
45694;SDS011;31408;45.468;9.124;2023-04-29T13:46:08;8.75;;;4.15;;
45694;SDS011;31408;45.468;9.124;2023-04-29T13:48:33;8.73;;;3.78;;
45694;SDS011;31408;45.468;9.124;2023-04-29T13:50:59;6.60;;;4.20;;
45694;SDS011;31408;45.468;9.124;2023-04-29T13:53:24;8.70;;;3.35;;
45694;SDS011;31408;45.468;9.124;2023-04-29T13:55:50;8.48;;;4.50;;
45694;SDS011;31408;45.468;9.124;2023-04-29T13:58:15;7.78;;;3.90;;
45694;SDS011;31408;45.468;9.124;2023-04-29T14:00:41;12.75;;;3.70;;
45694;SDS011;31408;45.468;9.124;2023-04-29T14:03:06;7.70;;;4.32;;
45694;SDS011;31408;45.468;9.124;2023-04-29T14:05:32;12.10;;;3.85;;
45694;SDS011;31408;45.468;9.124;2023-04-29T14:10:52;9.25;;;3.92;;
45694;SDS011;31408;45.468;9.124;2023-04-29T14:13:18;8.57;;;3.58;;
45694;SDS011;31408;45.468;9.124;2023-04-29T14:15:43;3.50;;;2.80;;
45694;SDS011;31408;45.468;9.124;2023-04-29T14:18:09;8.02;;;3.95;;
45694;SDS011;31408;45.468;9.124;2023-04-29T14:20:35;7.38;;;3.33;;
45694;SDS011;31408;45.468;9.124;2023-04-29T14:23:01;10.18;;;3.60;;
45694;SDS011;31408;45.468;9.124;2023-04-29T14:25:26;6.45;;;3.50;;
45694;SDS011;31408;45.468;9.124;2023-04-29T14:27:52;11.73;;;4.28;;
45694;SDS011;31408;45.468;9.124;2023-04-29T14:30:17;9.07;;;3.97;;
45694;SDS011;31408;45.468;9.124;2023-04-29T14:32:43;9.63;;;4.22;;
45694;SDS011;31408;45.468;9.124;2023-04-29T14:35:09;7.80;;;3.40;;
45694;SDS011;31408;45.468;9.124;2023-04-29T14:37:34;10.82;;;4.10;;
45694;SDS011;31408;45.468;9.124;2023-04-29T14:40:00;12.52;;;4.22;;
45694;SDS011;31408;45.468;9.124;2023-04-29T14:42:25;8.38;;;4.18;;
45694;SDS011;31408;45.468;9.124;2023-04-29T14:44:51;9.10;;;3.70;;
45694;SDS011;31408;45.468;9.124;2023-04-29T14:47:18;10.38;;;5.10;;
45694;SDS011;31408;45.468;9.124;2023-04-29T14:49:43;12.00;;;4.40;;
45694;SDS011;31408;45.468;9.124;2023-04-29T14:52:09;8.88;;;3.97;;
45694;SDS011;31408;45.468;9.124;2023-04-29T14:54:34;7.50;;;3.85;;
45694;SDS011;31408;45.468;9.124;2023-04-29T14:57:00;9.70;;;4.25;;
45694;SDS011;31408;45.468;9.124;2023-04-29T14:59:26;6.38;;;3.25;;
45694;SDS011;31408;45.468;9.124;2023-04-29T15:01:54;11.70;;;4.28;;
45694;SDS011;31408;45.468;9.124;2023-04-29T15:04:20;8.27;;;4.10;;
45694;SDS011;31408;45.468;9.124;2023-04-29T15:06:46;7.93;;;3.55;;
45694;SDS011;31408;45.468;9.124;2023-04-29T15:09:12;7.47;;;3.63;;
45694;SDS011;31408;45.468;9.124;2023-04-29T15:11:38;8.50;;;3.78;;
45694;SDS011;31408;45.468;9.124;2023-04-29T15:14:03;4.38;;;3.20;;
45694;SDS011;31408;45.468;9.124;2023-04-29T15:16:29;6.13;;;3.33;;
45694;SDS011;31408;45.468;9.124;2023-04-29T15:18:55;7.53;;;3.50;;
45694;SDS011;31408;45.468;9.124;2023-04-29T15:21:21;6.85;;;3.42;;